If you wish to contribute or participate in the discussions about articles you are invited to join SKYbrary as a registered user

 Actions

Capitán Av. German Quiroga G. Airport

From SKYbrary Wiki

SLSB
Airport
ICAO: SLSB – IATA: SRJ
Summary
Name Capitán Av. German Quiroga G. Airport
Region South America and Caribbean
Territory Bolivia BO.gif
Location San Borja, El Beni
Serving San Borja
Elevation 192.938 m
633 ft
633 ft192.938 m
Type small airport
Coordinates 14° 51' 33.12" S, 66° 44' 15.00" W
Runways
Designator Length Width Surface ROPS
18/36 1800 m5,905.512 ft
0 m0 ft
UNK /


METAR
Observation SLSB 171000Z 12003KT 0300 FG VV/// 22/22 Q1017 A3004 HR100 RWY NML
Station San Borja
Date/Time 17 June 2019 10:00:00
Wind direction 120°
Wind speed 03 kts
Lowest cloud amount n/a
Temperature 22°C
Dew point 22°C
Humidity 100%
QNH 1017 hPa
Weather condition n/a

Airport serving San Borja, a town in the Beni Department of Bolivia. The runway is in the eastern side of the town.

Climatology

Tropical monsoon climate (Köppen climate classification Am).

Maps

Terrain

Loading map...

Airport Layout

Loading map...


Accidents & Serious Incidents at or in vicinity of SLSB

None on SKYbrary